sensor_id;sensor_type;location;lat;lon;timestamp;P1;durP1;ratioP1;P2;durP2;ratioP2
75516;SDS011;64097;52.548;13.406;2024-03-22T06:02:39;10.52;;;9.40;;
75516;SDS011;64097;52.548;13.406;2024-03-22T06:05:05;11.80;;;9.82;;
75516;SDS011;64097;52.548;13.406;2024-03-22T06:07:31;10.50;;;9.40;;
75516;SDS011;64097;52.548;13.406;2024-03-22T06:10:06;11.48;;;10.00;;
75516;SDS011;64097;52.548;13.406;2024-03-22T06:12:35;12.70;;;10.80;;
75516;SDS011;64097;52.548;13.406;2024-03-22T06:15:01;12.20;;;10.27;;
75516;SDS011;64097;52.548;13.406;2024-03-22T06:17:31;10.40;;;9.30;;
75516;SDS011;64097;52.548;13.406;2024-03-22T06:19:59;12.10;;;9.60;;
75516;SDS011;64097;52.548;13.406;2024-03-22T06:22:27;10.77;;;9.68;;
75516;SDS011;64097;52.548;13.406;2024-03-22T06:24:53;11.27;;;9.60;;
75516;SDS011;64097;52.548;13.406;2024-03-22T06:27:19;10.85;;;9.48;;
75516;SDS011;64097;52.548;13.406;2024-03-22T06:29:44;11.20;;;9.68;;
75516;SDS011;64097;52.548;13.406;2024-03-22T06:32:10;13.45;;;11.55;;
75516;SDS011;64097;52.548;13.406;2024-03-22T06:34:36;13.27;;;10.75;;
75516;SDS011;64097;52.548;13.406;2024-03-22T06:37:02;12.70;;;11.35;;
75516;SDS011;64097;52.548;13.406;2024-03-22T06:39:29;12.80;;;10.45;;
75516;SDS011;64097;52.548;13.406;2024-03-22T06:41:55;12.20;;;10.70;;
75516;SDS011;64097;52.548;13.406;2024-03-22T06:44:21;11.98;;;10.77;;
75516;SDS011;64097;52.548;13.406;2024-03-22T06:46:47;11.98;;;9.93;;
75516;SDS011;64097;52.548;13.406;2024-03-22T06:49:12;11.57;;;9.88;;
75516;SDS011;64097;52.548;13.406;2024-03-22T06:51:38;11.20;;;9.70;;
75516;SDS011;64097;52.548;13.406;2024-03-22T06:54:04;12.18;;;10.27;;
75516;SDS011;64097;52.548;13.406;2024-03-22T06:56:30;12.63;;;10.82;;
75516;SDS011;64097;52.548;13.406;2024-03-22T06:58:55;12.38;;;10.68;;
75516;SDS011;64097;52.548;13.406;2024-03-22T07:01:21;12.05;;;10.35;;
75516;SDS011;64097;52.548;13.406;2024-03-22T07:03:47;12.60;;;11.15;;
75516;SDS011;64097;52.548;13.406;2024-03-22T07:06:13;11.68;;;10.10;;
75516;SDS011;64097;52.548;13.406;2024-03-22T07:08:40;12.23;;;10.85;;
75516;SDS011;64097;52.548;13.406;2024-03-22T07:11:06;13.32;;;10.98;;
75516;SDS011;64097;52.548;13.406;2024-03-22T07:13:32;13.32;;;11.80;;
75516;SDS011;64097;52.548;13.406;2024-03-22T07:15:58;12.93;;;11.25;;
75516;SDS011;64097;52.548;13.406;2024-03-22T07:18:23;12.27;;;11.00;;
75516;SDS011;64097;52.548;13.406;2024-03-22T07:20:49;12.57;;;10.45;;
75516;SDS011;64097;52.548;13.406;2024-03-22T07:23:15;12.65;;;11.35;;
75516;SDS011;64097;52.548;13.406;2024-03-22T07:25:40;14.25;;;12.38;;
75516;SDS011;64097;52.548;13.406;2024-03-22T07:28:11;13.70;;;11.63;;
75516;SDS011;64097;52.548;13.406;2024-03-22T07:30:37;12.55;;;11.02;;
75516;SDS011;64097;52.548;13.406;2024-03-22T07:33:03;14.70;;;12.18;;
75516;SDS011;64097;52.548;13.406;2024-03-22T07:35:29;13.73;;;11.75;;
75516;SDS011;64097;52.548;13.406;2024-03-22T07:37:54;14.30;;;12.10;;
75516;SDS011;64097;52.548;13.406;2024-03-22T07:40:21;13.20;;;11.52;;
75516;SDS011;64097;52.548;13.406;2024-03-22T07:42:47;13.63;;;11.93;;
75516;SDS011;64097;52.548;13.406;2024-03-22T07:45:13;12.82;;;11.05;;
75516;SDS011;64097;52.548;13.406;2024-03-22T07:47:38;13.90;;;12.20;;
75516;SDS011;64097;52.548;13.406;2024-03-22T07:50:07;13.73;;;12.13;;
75516;SDS011;64097;52.548;13.406;2024-03-22T07:52:33;14.13;;;11.80;;
75516;SDS011;64097;52.548;13.406;2024-03-22T07:54:59;13.50;;;12.10;;
75516;SDS011;64097;52.548;13.406;2024-03-22T07:57:27;13.68;;;12.18;;
75516;SDS011;64097;52.548;13.406;2024-03-22T07:59:53;14.55;;;12.48;;
75516;SDS011;64097;52.548;13.406;2024-03-22T08:02:18;14.45;;;12.98;;
75516;SDS011;64097;52.548;13.406;2024-03-22T08:04:44;15.10;;;12.57;;
75516;SDS011;64097;52.548;13.406;2024-03-22T08:07:10;14.45;;;12.90;;
75516;SDS011;64097;52.548;13.406;2024-03-22T08:09:35;15.02;;;13.25;;
75516;SDS011;64097;52.548;13.406;2024-03-22T08:12:01;15.00;;;13.25;;
75516;SDS011;64097;52.548;13.406;2024-03-22T08:14:27;16.42;;;13.93;;
75516;SDS011;64097;52.548;13.406;2024-03-22T08:16:53;15.43;;;13.20;;
75516;SDS011;64097;52.548;13.406;2024-03-22T08:19:19;14.25;;;12.75;;
75516;SDS011;64097;52.548;13.406;2024-03-22T08:21:44;14.90;;;13.30;;
75516;SDS011;64097;52.548;13.406;2024-03-22T08:24:10;16.58;;;12.55;;
75516;SDS011;64097;52.548;13.406;2024-03-22T08:26:36;13.40;;;12.00;;
75516;SDS011;64097;52.548;13.406;2024-03-22T08:29:01;14.00;;;12.38;;
75516;SDS011;64097;52.548;13.406;2024-03-22T08:31:27;14.52;;;12.95;;
75516;SDS011;64097;52.548;13.406;2024-03-22T08:33:53;14.50;;;12.85;;
75516;SDS011;64097;52.548;13.406;2024-03-22T08:36:21;16.17;;;13.25;;
75516;SDS011;64097;52.548;13.406;2024-03-22T08:38:48;14.40;;;12.90;;
75516;SDS011;64097;52.548;13.406;2024-03-22T08:41:13;14.35;;;12.85;;
75516;SDS011;64097;52.548;13.406;2024-03-22T08:43:39;15.23;;;13.63;;
75516;SDS011;64097;52.548;13.406;2024-03-22T08:46:05;13.68;;;12.20;;
75516;SDS011;64097;52.548;13.406;2024-03-22T08:48:30;14.23;;;12.73;;
75516;SDS011;64097;52.548;13.406;2024-03-22T08:50:57;15.98;;;12.88;;
75516;SDS011;64097;52.548;13.406;2024-03-22T08:53:23;13.93;;;12.43;;
75516;SDS011;64097;52.548;13.406;2024-03-22T08:55:49;14.40;;;12.90;;
75516;SDS011;64097;52.548;13.406;2024-03-22T08:58:15;15.80;;;12.98;;
75516;SDS011;64097;52.548;13.406;2024-03-22T09:00:43;16.98;;;14.15;;
75516;SDS011;64097;52.548;13.406;2024-03-22T09:03:11;17.08;;;13.90;;
75516;SDS011;64097;52.548;13.406;2024-03-22T09:05:39;14.32;;;12.82;;
75516;SDS011;64097;52.548;13.406;2024-03-22T09:08:06;15.10;;;13.50;;
75516;SDS011;64097;52.548;13.406;2024-03-22T09:10:32;15.52;;;13.77;;
75516;SDS011;64097;52.548;13.406;2024-03-22T09:12:57;15.07;;;12.93;;
75516;SDS011;64097;52.548;13.406;2024-03-22T09:15:23;13.73;;;12.15;;
75516;SDS011;64097;52.548;13.406;2024-03-22T09:17:49;12.70;;;11.40;;
75516;SDS011;64097;52.548;13.406;2024-03-22T09:20:16;13.52;;;12.13;;
75516;SDS011;64097;52.548;13.406;2024-03-22T09:22:42;16.10;;;13.25;;
75516;SDS011;64097;52.548;13.406;2024-03-22T09:25:07;16.15;;;13.48;;
75516;SDS011;64097;52.548;13.406;2024-03-22T09:27:33;14.15;;;12.50;;
75516;SDS011;64097;52.548;13.406;2024-03-22T09:29:59;13.60;;;12.20;;
75516;SDS011;64097;52.548;13.406;2024-03-22T09:32:26;14.05;;;12.30;;
75516;SDS011;64097;52.548;13.406;2024-03-22T09:34:52;14.48;;;12.95;;
75516;SDS011;64097;52.548;13.406;2024-03-22T09:37:18;15.48;;;13.20;;
75516;SDS011;64097;52.548;13.406;2024-03-22T09:39:44;13.38;;;11.98;;
75516;SDS011;64097;52.548;13.406;2024-03-22T09:42:10;13.18;;;11.77;;
75516;SDS011;64097;52.548;13.406;2024-03-22T09:44:43;14.82;;;13.15;;
75516;SDS011;64097;52.548;13.406;2024-03-22T09:47:15;15.77;;;13.32;;
75516;SDS011;64097;52.548;13.406;2024-03-22T09:49:42;13.20;;;11.57;;
75516;SDS011;64097;52.548;13.406;2024-03-22T09:52:15;14.23;;;12.00;;
75516;SDS011;64097;52.548;13.406;2024-03-22T09:54:44;12.32;;;11.02;;
75516;SDS011;64097;52.548;13.406;2024-03-22T09:57:14;12.95;;;11.43;;
75516;SDS011;64097;52.548;13.406;2024-03-22T09:59:43;13.63;;;11.40;;
75516;SDS011;64097;52.548;13.406;2024-03-22T10:02:10;13.55;;;12.13;;
75516;SDS011;64097;52.548;13.406;2024-03-22T10:04:40;14.43;;;12.02;;
75516;SDS011;64097;52.548;13.406;2024-03-22T10:07:06;13.70;;;11.70;;
75516;SDS011;64097;52.548;13.406;2024-03-22T10:09:33;13.48;;;12.10;;
75516;SDS011;64097;52.548;13.406;2024-03-22T10:11:59;12.25;;;10.95;;
75516;SDS011;64097;52.548;13.406;2024-03-22T10:14:25;13.50;;;11.65;;
75516;SDS011;64097;52.548;13.406;2024-03-22T10:16:51;13.30;;;11.82;;
75516;SDS011;64097;52.548;13.406;2024-03-22T10:19:21;14.43;;;12.82;;
75516;SDS011;64097;52.548;13.406;2024-03-22T10:21:47;13.45;;;11.73;;
75516;SDS011;64097;52.548;13.406;2024-03-22T10:24:24;15.75;;;13.20;;
75516;SDS011;64097;52.548;13.406;2024-03-22T10:26:50;13.80;;;11.27;;
75516;SDS011;64097;52.548;13.406;2024-03-22T10:29:15;13.02;;;11.57;;
75516;SDS011;64097;52.548;13.406;2024-03-22T10:31:41;13.57;;;12.18;;
75516;SDS011;64097;52.548;13.406;2024-03-22T10:34:07;13.93;;;12.43;;
75516;SDS011;64097;52.548;13.406;2024-03-22T10:36:36;12.77;;;11.43;;
75516;SDS011;64097;52.548;13.406;2024-03-22T10:39:02;12.63;;;11.32;;
75516;SDS011;64097;52.548;13.406;2024-03-22T10:41:29;13.80;;;12.05;;
75516;SDS011;64097;52.548;13.406;2024-03-22T10:43:54;13.45;;;12.05;;
75516;SDS011;64097;52.548;13.406;2024-03-22T10:46:21;12.75;;;11.43;;
75516;SDS011;64097;52.548;13.406;2024-03-22T10:48:50;12.60;;;11.18;;
75516;SDS011;64097;52.548;13.406;2024-03-22T10:51:16;12.75;;;11.40;;
75516;SDS011;64097;52.548;13.406;2024-03-22T10:53:42;12.52;;;11.02;;
75516;SDS011;64097;52.548;13.406;2024-03-22T10:56:09;11.48;;;10.20;;
75516;SDS011;64097;52.548;13.406;2024-03-22T10:58:39;11.93;;;10.73;;
75516;SDS011;64097;52.548;13.406;2024-03-22T11:01:05;11.35;;;10.07;;
75516;SDS011;64097;52.548;13.406;2024-03-22T11:03:31;11.73;;;10.52;;
75516;SDS011;64097;52.548;13.406;2024-03-22T11:05:58;10.93;;;9.60;;
75516;SDS011;64097;52.548;13.406;2024-03-22T11:08:28;11.23;;;10.10;;
75516;SDS011;64097;52.548;13.406;2024-03-22T11:10:58;11.23;;;10.07;;
75516;SDS011;64097;52.548;13.406;2024-03-22T11:13:35;9.55;;;8.65;;
75516;SDS011;64097;52.548;13.406;2024-03-22T11:16:02;10.00;;;9.00;;
75516;SDS011;64097;52.548;13.406;2024-03-22T11:18:27;12.40;;;11.10;;
75516;SDS011;64097;52.548;13.406;2024-03-22T11:20:53;11.10;;;10.00;;
75516;SDS011;64097;52.548;13.406;2024-03-22T11:23:19;11.93;;;9.93;;
75516;SDS011;64097;52.548;13.406;2024-03-22T11:25:45;11.85;;;10.65;;
75516;SDS011;64097;52.548;13.406;2024-03-22T11:28:11;10.35;;;9.25;;
75516;SDS011;64097;52.548;13.406;2024-03-22T11:30:37;10.50;;;9.32;;
75516;SDS011;64097;52.548;13.406;2024-03-22T11:33:03;10.70;;;9.60;;
75516;SDS011;64097;52.548;13.406;2024-03-22T11:35:30;10.43;;;8.35;;
75516;SDS011;64097;52.548;13.406;2024-03-22T11:37:56;9.38;;;8.27;;
75516;SDS011;64097;52.548;13.406;2024-03-22T11:40:23;9.50;;;7.93;;
75516;SDS011;64097;52.548;13.406;2024-03-22T11:42:51;11.38;;;9.63;;
75516;SDS011;64097;52.548;13.406;2024-03-22T11:48:01;10.23;;;9.10;;
75516;SDS011;64097;52.548;13.406;2024-03-22T11:50:27;11.65;;;9.45;;
75516;SDS011;64097;52.548;13.406;2024-03-22T11:52:53;9.88;;;8.88;;
75516;SDS011;64097;52.548;13.406;2024-03-22T11:55:19;10.05;;;8.93;;
75516;SDS011;64097;52.548;13.406;2024-03-22T11:57:48;10.85;;;8.43;;
75516;SDS011;64097;52.548;13.406;2024-03-22T12:00:17;10.02;;;8.93;;
75516;SDS011;64097;52.548;13.406;2024-03-22T12:02:44;11.10;;;10.00;;
75516;SDS011;64097;52.548;13.406;2024-03-22T12:05:10;10.55;;;9.05;;
75516;SDS011;64097;52.548;13.406;2024-03-22T12:07:36;10.93;;;9.18;;
75516;SDS011;64097;52.548;13.406;2024-03-22T12:10:02;10.48;;;9.00;;
75516;SDS011;64097;52.548;13.406;2024-03-22T12:12:29;10.80;;;8.73;;
75516;SDS011;64097;52.548;13.406;2024-03-22T12:14:55;9.77;;;8.70;;
75516;SDS011;64097;52.548;13.406;2024-03-22T12:17:21;11.02;;;9.57;;
75516;SDS011;64097;52.548;13.406;2024-03-22T12:19:46;11.60;;;10.30;;
75516;SDS011;64097;52.548;13.406;2024-03-22T12:22:12;12.60;;;10.02;;
75516;SDS011;64097;52.548;13.406;2024-03-22T12:24:38;10.02;;;8.55;;
75516;SDS011;64097;52.548;13.406;2024-03-22T12:27:04;9.68;;;8.68;;
75516;SDS011;64097;52.548;13.406;2024-03-22T12:29:33;10.90;;;9.77;;
75516;SDS011;64097;52.548;13.406;2024-03-22T12:32:00;13.68;;;11.65;;
75516;SDS011;64097;52.548;13.406;2024-03-22T12:34:27;12.55;;;10.27;;
75516;SDS011;64097;52.548;13.406;2024-03-22T12:36:54;11.00;;;9.55;;
75516;SDS011;64097;52.548;13.406;2024-03-22T12:39:20;13.68;;;9.98;;
75516;SDS011;64097;52.548;13.406;2024-03-22T12:41:46;12.27;;;10.77;;
75516;SDS011;64097;52.548;13.406;2024-03-22T12:44:12;13.02;;;11.15;;
75516;SDS011;64097;52.548;13.406;2024-03-22T12:46:37;12.45;;;10.50;;
75516;SDS011;64097;52.548;13.406;2024-03-22T12:49:03;12.38;;;10.25;;
75516;SDS011;64097;52.548;13.406;2024-03-22T12:51:29;11.43;;;9.68;;
75516;SDS011;64097;52.548;13.406;2024-03-22T12:53:55;12.07;;;10.07;;
75516;SDS011;64097;52.548;13.406;2024-03-22T12:56:21;12.40;;;10.98;;
75516;SDS011;64097;52.548;13.406;2024-03-22T12:58:47;12.90;;;11.23;;
75516;SDS011;64097;52.548;13.406;2024-03-22T13:01:13;12.55;;;10.00;;
75516;SDS011;64097;52.548;13.406;2024-03-22T13:03:39;11.30;;;9.90;;
75516;SDS011;64097;52.548;13.406;2024-03-22T13:06:05;12.07;;;10.27;;
75516;SDS011;64097;52.548;13.406;2024-03-22T13:08:31;12.15;;;9.48;;
75516;SDS011;64097;52.548;13.406;2024-03-22T13:10:57;10.45;;;8.88;;
75516;SDS011;64097;52.548;13.406;2024-03-22T13:13:23;11.15;;;9.80;;
75516;SDS011;64097;52.548;13.406;2024-03-22T13:15:49;12.30;;;10.43;;
75516;SDS011;64097;52.548;13.406;2024-03-22T13:18:14;11.80;;;10.00;;
75516;SDS011;64097;52.548;13.406;2024-03-22T13:20:40;11.32;;;9.45;;
75516;SDS011;64097;52.548;13.406;2024-03-22T13:23:06;10.43;;;9.32;;
75516;SDS011;64097;52.548;13.406;2024-03-22T13:25:34;12.48;;;10.43;;
75516;SDS011;64097;52.548;13.406;2024-03-22T13:28:02;13.88;;;10.75;;
75516;SDS011;64097;52.548;13.406;2024-03-22T13:30:31;11.05;;;9.32;;
75516;SDS011;64097;52.548;13.406;2024-03-22T13:32:57;12.07;;;10.00;;
75516;SDS011;64097;52.548;13.406;2024-03-22T13:35:24;11.50;;;10.07;;
75516;SDS011;64097;52.548;13.406;2024-03-22T13:37:49;13.60;;;10.68;;
75516;SDS011;64097;52.548;13.406;2024-03-22T13:40:15;11.35;;;9.10;;
75516;SDS011;64097;52.548;13.406;2024-03-22T13:42:41;10.50;;;8.68;;
75516;SDS011;64097;52.548;13.406;2024-03-22T13:45:07;12.82;;;10.10;;
75516;SDS011;64097;52.548;13.406;2024-03-22T13:47:33;11.43;;;9.52;;
75516;SDS011;64097;52.548;13.406;2024-03-22T13:49:59;10.15;;;8.40;;
75516;SDS011;64097;52.548;13.406;2024-03-22T13:52:25;9.73;;;8.30;;
75516;SDS011;64097;52.548;13.406;2024-03-22T13:54:51;9.60;;;7.72;;
75516;SDS011;64097;52.548;13.406;2024-03-22T13:57:16;10.18;;;7.95;;
75516;SDS011;64097;52.548;13.406;2024-03-22T13:59:42;8.65;;;7.60;;
